sensor_id;sensor_type;location;lat;lon;timestamp;pressure;altitude;pressure_sealevel;temperature;humidity
53858;BME280;39763;51.188;6.690;2023-02-03T00:00:47;102169.56;;;11.48;73.84
53858;BME280;39763;51.188;6.690;2023-02-03T00:02:18;102161.69;;;11.47;73.59
53858;BME280;39763;51.188;6.690;2023-02-03T00:03:50;102166.97;;;11.45;73.89
53858;BME280;39763;51.188;6.690;2023-02-03T00:05:22;102166.16;;;11.42;73.81
53858;BME280;39763;51.188;6.690;2023-02-03T00:06:54;102151.34;;;11.35;74.25
53858;BME280;39763;51.188;6.690;2023-02-03T00:08:26;102159.25;;;11.33;74.32
53858;BME280;39763;51.188;6.690;2023-02-03T00:09:57;102160.97;;;11.36;74.55
53858;BME280;39763;51.188;6.690;2023-02-03T00:11:29;102157.50;;;11.32;74.06
53858;BME280;39763;51.188;6.690;2023-02-03T00:13:02;102156.66;;;11.30;74.54
53858;BME280;39763;51.188;6.690;2023-02-03T00:14:34;102147.00;;;11.30;74.31
53858;BME280;39763;51.188;6.690;2023-02-03T00:16:05;102146.22;;;11.27;74.73
53858;BME280;39763;51.188;6.690;2023-02-03T00:17:37;102146.25;;;11.24;74.75
53858;BME280;39763;51.188;6.690;2023-02-03T00:19:08;102145.34;;;11.25;74.42
53858;BME280;39763;51.188;6.690;2023-02-03T00:20:40;102136.63;;;11.21;74.43
53858;BME280;39763;51.188;6.690;2023-02-03T00:22:12;102136.63;;;11.21;74.92
53858;BME280;39763;51.188;6.690;2023-02-03T00:23:43;102139.31;;;11.15;74.92
53858;BME280;39763;51.188;6.690;2023-02-03T00:25:15;102137.53;;;11.19;74.95
53858;BME280;39763;51.188;6.690;2023-02-03T00:26:46;102142.81;;;11.16;75.35
53858;BME280;39763;51.188;6.690;2023-02-03T00:28:19;102143.69;;;11.18;75.74
53858;BME280;39763;51.188;6.690;2023-02-03T00:29:51;102142.78;;;11.20;75.52
53858;BME280;39763;51.188;6.690;2023-02-03T00:31:23;102145.34;;;11.25;75.63
53858;BME280;39763;51.188;6.690;2023-02-03T00:32:55;102143.59;;;11.24;75.04
53858;BME280;39763;51.188;6.690;2023-02-03T00:34:27;102145.34;;;11.26;75.35
53858;BME280;39763;51.188;6.690;2023-02-03T00:36:03;102137.38;;;11.29;75.24
53858;BME280;39763;51.188;6.690;2023-02-03T00:37:34;102130.31;;;11.33;75.12
53858;BME280;39763;51.188;6.690;2023-02-03T00:39:06;102127.69;;;11.33;74.63
53858;BME280;39763;51.188;6.690;2023-02-03T00:40:37;102118.06;;;11.32;74.37
53858;BME280;39763;51.188;6.690;2023-02-03T00:42:08;102108.50;;;11.26;74.55
53858;BME280;39763;51.188;6.690;2023-02-03T00:43:41;102113.78;;;11.25;74.83
53858;BME280;39763;51.188;6.690;2023-02-03T00:45:13;102108.50;;;11.26;74.61
53858;BME280;39763;51.188;6.690;2023-02-03T00:46:44;102121.69;;;11.25;74.59
53858;BME280;39763;51.188;6.690;2023-02-03T00:48:16;102120.03;;;11.16;75.07
53858;BME280;39763;51.188;6.690;2023-02-03T00:49:47;102119.97;;;11.21;75.58
53858;BME280;39763;51.188;6.690;2023-02-03T00:51:20;102130.50;;;11.21;75.17
53858;BME280;39763;51.188;6.690;2023-02-03T00:52:52;102126.09;;;11.21;75.30
53858;BME280;39763;51.188;6.690;2023-02-03T00:54:24;102123.44;;;11.26;75.07
53858;BME280;39763;51.188;6.690;2023-02-03T00:55:55;102123.41;;;11.27;75.19
53858;BME280;39763;51.188;6.690;2023-02-03T00:57:27;102131.28;;;11.27;74.71
53858;BME280;39763;51.188;6.690;2023-02-03T00:59:00;102130.44;;;11.27;74.53
53858;BME280;39763;51.188;6.690;2023-02-03T01:00:31;102126.06;;;11.24;74.71
53858;BME280;39763;51.188;6.690;2023-02-03T01:02:03;102135.75;;;11.21;75.10
53858;BME280;39763;51.188;6.690;2023-02-03T01:03:34;102131.41;;;11.18;75.19
53858;BME280;39763;51.188;6.690;2023-02-03T01:05:06;102127.91;;;11.16;75.17
53858;BME280;39763;51.188;6.690;2023-02-03T01:06:38;102136.63;;;11.20;75.64
53858;BME280;39763;51.188;6.690;2023-02-03T01:08:10;102140.09;;;11.23;75.42
53858;BME280;39763;51.188;6.690;2023-02-03T01:09:42;102140.94;;;11.27;74.97
53858;BME280;39763;51.188;6.690;2023-02-03T01:11:14;102151.50;;;11.24;75.35
53858;BME280;39763;51.188;6.690;2023-02-03T01:12:47;102148.88;;;11.22;74.97
53858;BME280;39763;51.188;6.690;2023-02-03T01:14:20;102163.75;;;11.25;75.31
53858;BME280;39763;51.188;6.690;2023-02-03T01:15:51;102165.50;;;11.26;75.17
53858;BME280;39763;51.188;6.690;2023-02-03T01:17:23;102170.69;;;11.29;75.34
53858;BME280;39763;51.188;6.690;2023-02-03T01:18:55;102171.53;;;11.32;75.42
53858;BME280;39763;51.188;6.690;2023-02-03T01:20:26;102173.31;;;11.29;74.88
53858;BME280;39763;51.188;6.690;2023-02-03T01:21:58;102179.41;;;11.34;74.90
53858;BME280;39763;51.188;6.690;2023-02-03T01:23:30;102171.50;;;11.36;75.14
53858;BME280;39763;51.188;6.690;2023-02-03T01:25:02;102182.06;;;11.32;75.51
53858;BME280;39763;51.188;6.690;2023-02-03T01:26:35;102172.38;;;11.35;75.51
53858;BME280;39763;51.188;6.690;2023-02-03T01:28:07;102174.97;;;11.39;75.58
53858;BME280;39763;51.188;6.690;2023-02-03T01:29:40;102172.34;;;11.39;74.91
53858;BME280;39763;51.188;6.690;2023-02-03T01:31:12;102175.88;;;11.35;74.93
53858;BME280;39763;51.188;6.690;2023-02-03T01:32:44;102180.22;;;11.41;75.57
53858;BME280;39763;51.188;6.690;2023-02-03T01:34:16;102180.13;;;11.45;74.80
53858;BME280;39763;51.188;6.690;2023-02-03T01:35:48;102175.66;;;11.52;74.83
53858;BME280;39763;51.188;6.690;2023-02-03T01:37:20;102172.16;;;11.53;74.83
53858;BME280;39763;51.188;6.690;2023-02-03T01:38:52;102176.53;;;11.54;75.07
53858;BME280;39763;51.188;6.690;2023-02-03T01:40:25;102181.75;;;11.55;74.74
53858;BME280;39763;51.188;6.690;2023-02-03T01:41:57;102180.00;;;11.56;74.52
53858;BME280;39763;51.188;6.690;2023-02-03T01:43:29;102190.47;;;11.59;74.64
53858;BME280;39763;51.188;6.690;2023-02-03T01:45:05;102180.78;;;11.62;74.76
53858;BME280;39763;51.188;6.690;2023-02-03T01:46:38;102186.88;;;11.64;74.12
53858;BME280;39763;51.188;6.690;2023-02-03T01:48:12;102178.97;;;11.66;74.20
53858;BME280;39763;51.188;6.690;2023-02-03T01:49:44;102194.75;;;11.66;73.89
53858;BME280;39763;51.188;6.690;2023-02-03T01:51:16;102191.25;;;11.65;74.24
53858;BME280;39763;51.188;6.690;2023-02-03T01:52:50;102186.84;;;11.68;73.53
53858;BME280;39763;51.188;6.690;2023-02-03T01:54:23;102188.63;;;11.65;73.63
53858;BME280;39763;51.188;6.690;2023-02-03T01:55:56;102188.66;;;11.62;73.67
53858;BME280;39763;51.188;6.690;2023-02-03T01:57:30;102185.19;;;11.60;74.23
53858;BME280;39763;51.188;6.690;2023-02-03T01:59:03;102164.13;;;11.60;73.97
53858;BME280;39763;51.188;6.690;2023-02-03T02:00:36;102158.94;;;11.57;73.80
53858;BME280;39763;51.188;6.690;2023-02-03T02:02:08;102161.50;;;11.60;74.58
53858;BME280;39763;51.188;6.690;2023-02-03T02:03:40;102162.38;;;11.59;73.78
53858;BME280;39763;51.188;6.690;2023-02-03T02:05:13;102169.41;;;11.59;73.80
53858;BME280;39763;51.188;6.690;2023-02-03T02:06:47;102173.78;;;11.60;73.73
53858;BME280;39763;51.188;6.690;2023-02-03T02:08:19;102187.94;;;11.51;73.62
53858;BME280;39763;51.188;6.690;2023-02-03T02:09:53;102186.16;;;11.55;74.24
53858;BME280;39763;51.188;6.690;2023-02-03T02:11:26;102181.69;;;11.58;74.49
53858;BME280;39763;51.188;6.690;2023-02-03T02:12:57;102184.38;;;11.57;73.88
53858;BME280;39763;51.188;6.690;2023-02-03T02:14:30;102193.94;;;11.61;73.96
53858;BME280;39763;51.188;6.690;2023-02-03T02:16:07;102179.88;;;11.63;74.01
53858;BME280;39763;51.188;6.690;2023-02-03T02:17:47;102181.59;;;11.68;73.22
53858;BME280;39763;51.188;6.690;2023-02-03T02:21:31;102154.41;;;11.65;73.55
53858;BME280;39763;51.188;6.690;2023-02-03T02:23:14;102152.72;;;11.61;73.48
53858;BME280;39763;51.188;6.690;2023-02-03T02:28:39;102142.16;;;11.63;73.60
53858;BME280;39763;51.188;6.690;2023-02-03T02:30:28;102147.41;;;11.64;73.17
53858;BME280;39763;51.188;6.690;2023-02-03T02:32:10;102140.34;;;11.68;73.56
53858;BME280;39763;51.188;6.690;2023-02-03T02:33:44;102139.50;;;11.64;73.24
53858;BME280;39763;51.188;6.690;2023-02-03T02:35:22;102136.03;;;11.62;73.38
53858;BME280;39763;51.188;6.690;2023-02-03T02:36:59;102136.06;;;11.61;73.28
53858;BME280;39763;51.188;6.690;2023-02-03T02:38:39;102143.91;;;11.64;73.35
53858;BME280;39763;51.188;6.690;2023-02-03T02:40:18;102139.56;;;11.60;73.76
53858;BME280;39763;51.188;6.690;2023-02-03T02:41:55;102136.09;;;11.58;73.63
53858;BME280;39763;51.188;6.690;2023-02-03T02:43:27;102139.56;;;11.60;73.77
53858;BME280;39763;51.188;6.690;2023-02-03T02:45:05;102138.66;;;11.62;73.29
53858;BME280;39763;51.188;6.690;2023-02-03T02:46:39;102138.66;;;11.62;73.52
53858;BME280;39763;51.188;6.690;2023-02-03T02:48:16;102143.06;;;11.62;73.54
53858;BME280;39763;51.188;6.690;2023-02-03T02:49:52;102145.72;;;11.59;73.68
53858;BME280;39763;51.188;6.690;2023-02-03T02:51:25;102144.84;;;11.58;73.89
53858;BME280;39763;51.188;6.690;2023-02-03T02:52:58;102124.66;;;11.60;73.33
53858;BME280;39763;51.188;6.690;2023-02-03T02:54:30;102134.38;;;11.57;73.34
53858;BME280;39763;51.188;6.690;2023-02-03T02:56:04;102137.81;;;11.60;73.39
53858;BME280;39763;51.188;6.690;2023-02-03T02:57:36;102142.28;;;11.57;73.50
53858;BME280;39763;51.188;6.690;2023-02-03T02:59:09;102144.06;;;11.53;73.64
53858;BME280;39763;51.188;6.690;2023-02-03T03:00:41;102147.59;;;11.52;73.85
53858;BME280;39763;51.188;6.690;2023-02-03T03:02:13;102144.94;;;11.55;73.46
53858;BME280;39763;51.188;6.690;2023-02-03T03:03:46;102123.81;;;11.58;73.48
53858;BME280;39763;51.188;6.690;2023-02-03T03:05:18;102119.47;;;11.56;73.15
53858;BME280;39763;51.188;6.690;2023-02-03T03:06:54;102121.28;;;11.52;73.26
53858;BME280;39763;51.188;6.690;2023-02-03T03:08:29;102110.78;;;11.49;73.11
53858;BME280;39763;51.188;6.690;2023-02-03T03:10:04;102094.19;;;11.46;73.04
53858;BME280;39763;51.188;6.690;2023-02-03T03:11:38;102108.22;;;11.46;73.31
53858;BME280;39763;51.188;6.690;2023-02-03T03:13:13;102093.31;;;11.45;73.33
53858;BME280;39763;51.188;6.690;2023-02-03T03:14:49;102100.44;;;11.40;73.24
53858;BME280;39763;51.188;6.690;2023-02-03T03:16:23;102101.38;;;11.35;73.30
53858;BME280;39763;51.188;6.690;2023-02-03T03:17:56;102109.28;;;11.33;73.71
53858;BME280;39763;51.188;6.690;2023-02-03T03:19:31;102120.72;;;11.29;73.89
53858;BME280;39763;51.188;6.690;2023-02-03T03:21:04;102124.22;;;11.31;74.22
53858;BME280;39763;51.188;6.690;2023-02-03T03:22:38;102129.44;;;11.34;73.71
53858;BME280;39763;51.188;6.690;2023-02-03T03:24:13;102129.41;;;11.36;73.80
53858;BME280;39763;51.188;6.690;2023-02-03T03:25:48;102138.19;;;11.35;74.09
53858;BME280;39763;51.188;6.690;2023-02-03T03:27:21;102133.81;;;11.35;74.10
53858;BME280;39763;51.188;6.690;2023-02-03T03:28:55;102139.00;;;11.41;74.68
53858;BME280;39763;51.188;6.690;2023-02-03T03:30:29;102136.31;;;11.43;74.13
53858;BME280;39763;51.188;6.690;2023-02-03T03:32:03;102145.91;;;11.47;73.64
53858;BME280;39763;51.188;6.690;2023-02-03T03:33:35;102140.66;;;11.45;73.55
53858;BME280;39763;51.188;6.690;2023-02-03T03:35:08;102124.88;;;11.45;73.67
53858;BME280;39763;51.188;6.690;2023-02-03T03:36:40;102127.50;;;11.47;73.86
53858;BME280;39763;51.188;6.690;2023-02-03T03:38:13;102127.47;;;11.48;73.99
53858;BME280;39763;51.188;6.690;2023-02-03T03:39:50;102122.19;;;11.50;73.80
53858;BME280;39763;51.188;6.690;2023-02-03T03:41:25;102123.03;;;11.52;73.24
53858;BME280;39763;51.188;6.690;2023-02-03T03:43:01;102118.69;;;11.49;73.16
53858;BME280;39763;51.188;6.690;2023-02-03T03:44:34;102130.13;;;11.47;73.73
53858;BME280;39763;51.188;6.690;2023-02-03T03:46:09;102122.19;;;11.51;73.56
53858;BME280;39763;51.188;6.690;2023-02-03T03:47:43;102119.63;;;11.45;73.40
53858;BME280;39763;51.188;6.690;2023-02-03T03:49:17;102126.63;;;11.45;73.40
53858;BME280;39763;51.188;6.690;2023-02-03T03:50:52;102119.59;;;11.48;73.74
53858;BME280;39763;51.188;6.690;2023-02-03T03:52:26;102120.44;;;11.50;73.10
53858;BME280;39763;51.188;6.690;2023-02-03T03:54:00;102132.69;;;11.51;73.32
53858;BME280;39763;51.188;6.690;2023-02-03T03:55:34;102137.06;;;11.52;73.50
53858;BME280;39763;51.188;6.690;2023-02-03T03:57:08;102136.31;;;11.43;73.34
53858;BME280;39763;51.188;6.690;2023-02-03T03:58:45;102135.41;;;11.45;73.58
53858;BME280;39763;51.188;6.690;2023-02-03T04:00:19;102123.09;;;11.47;73.19
53858;BME280;39763;51.188;6.690;2023-02-03T04:01:52;102116.06;;;11.49;73.70
53858;BME280;39763;51.188;6.690;2023-02-03T04:03:24;102109.88;;;11.52;73.46
53858;BME280;39763;51.188;6.690;2023-02-03T04:04:58;102113.38;;;11.52;73.79
53858;BME280;39763;51.188;6.690;2023-02-03T04:06:32;102109.84;;;11.56;73.41
53858;BME280;39763;51.188;6.690;2023-02-03T04:08:04;102121.16;;;11.58;72.83
53858;BME280;39763;51.188;6.690;2023-02-03T04:09:35;102107.25;;;11.53;72.70
53858;BME280;39763;51.188;6.690;2023-02-03T04:11:07;102097.63;;;11.51;72.65
53858;BME280;39763;51.188;6.690;2023-02-03T04:12:38;102110.78;;;11.51;73.01
53858;BME280;39763;51.188;6.690;2023-02-03T04:14:10;102110.00;;;11.44;73.10
53858;BME280;39763;51.188;6.690;2023-02-03T04:15:42;102108.22;;;11.46;73.74
53858;BME280;39763;51.188;6.690;2023-02-03T04:17:13;102124.88;;;11.47;73.33
53858;BME280;39763;51.188;6.690;2023-02-03T04:18:45;102119.59;;;11.48;73.22
53858;BME280;39763;51.188;6.690;2023-02-03T04:20:16;102130.13;;;11.47;73.28
53858;BME280;39763;51.188;6.690;2023-02-03T04:21:51;102116.06;;;11.49;73.49
53858;BME280;39763;51.188;6.690;2023-02-03T04:23:23;102119.53;;;11.51;73.29
53858;BME280;39763;51.188;6.690;2023-02-03T04:24:54;102118.69;;;11.49;72.68
53858;BME280;39763;51.188;6.690;2023-02-03T04:26:29;102123.13;;;11.46;73.58
53858;BME280;39763;51.188;6.690;2023-02-03T04:28:00;102124.00;;;11.46;73.58
53858;BME280;39763;51.188;6.690;2023-02-03T04:29:32;102128.38;;;11.47;73.61
53858;BME280;39763;51.188;6.690;2023-02-03T04:31:03;102124.97;;;11.41;73.77
53858;BME280;39763;51.188;6.690;2023-02-03T04:32:35;102126.66;;;11.43;73.50
53858;BME280;39763;51.188;6.690;2023-02-03T04:34:06;102124.94;;;11.42;73.48
53858;BME280;39763;51.188;6.690;2023-02-03T04:35:38;102132.00;;;11.39;73.73
53858;BME280;39763;51.188;6.690;2023-02-03T04:37:11;102137.25;;;11.40;73.37
53858;BME280;39763;51.188;6.690;2023-02-03T04:38:42;102145.03;;;11.46;74.00
53858;BME280;39763;51.188;6.690;2023-02-03T04:40:14;102142.38;;;11.48;73.45
53858;BME280;39763;51.188;6.690;2023-02-03T04:41:45;102118.66;;;11.51;73.52
53858;BME280;39763;51.188;6.690;2023-02-03T04:43:17;102121.31;;;11.49;73.94
53858;BME280;39763;51.188;6.690;2023-02-03T04:44:48;102123.13;;;11.44;73.57
53858;BME280;39763;51.188;6.690;2023-02-03T04:46:20;102111.72;;;11.45;73.33
53858;BME280;39763;51.188;6.690;2023-02-03T04:47:51;102120.44;;;11.49;73.30
53858;BME280;39763;51.188;6.690;2023-02-03T04:49:25;102103.78;;;11.48;73.06
53858;BME280;39763;51.188;6.690;2023-02-03T04:50:59;102116.94;;;11.50;73.33
53858;BME280;39763;51.188;6.690;2023-02-03T04:52:32;102110.75;;;11.52;73.37
53858;BME280;39763;51.188;6.690;2023-02-03T04:54:03;102104.59;;;11.53;73.28
53858;BME280;39763;51.188;6.690;2023-02-03T04:55:35;102099.25;;;11.58;73.46
53858;BME280;39763;51.188;6.690;2023-02-03T04:57:06;102100.19;;;11.57;73.31
53858;BME280;39763;51.188;6.690;2023-02-03T04:58:38;102108.00;;;11.60;72.92
53858;BME280;39763;51.188;6.690;2023-02-03T05:00:10;102095.81;;;11.56;72.71
53858;BME280;39763;51.188;6.690;2023-02-03T05:01:41;102095.78;;;11.57;72.57
53858;BME280;39763;51.188;6.690;2023-02-03T05:03:13;102089.72;;;11.52;72.40
53858;BME280;39763;51.188;6.690;2023-02-03T05:04:44;102094.13;;;11.50;72.65
53858;BME280;39763;51.188;6.690;2023-02-03T05:06:16;102095.88;;;11.51;73.05
53858;BME280;39763;51.188;6.690;2023-02-03T05:07:49;102102.06;;;11.47;73.09
53858;BME280;39763;51.188;6.690;2023-02-03T05:09:20;102100.31;;;11.46;72.67
53858;BME280;39763;51.188;6.690;2023-02-03T05:10:52;102101.16;;;11.48;73.15
53858;BME280;39763;51.188;6.690;2023-02-03T05:12:23;102087.97;;;11.51;72.69
53858;BME280;39763;51.188;6.690;2023-02-03T05:13:55;102092.34;;;11.52;72.88
53858;BME280;39763;51.188;6.690;2023-02-03T05:15:27;102089.72;;;11.52;72.78
53858;BME280;39763;51.188;6.690;2023-02-03T05:16:58;102095.84;;;11.53;72.57
53858;BME280;39763;51.188;6.690;2023-02-03T05:18:30;102104.63;;;11.52;73.04
53858;BME280;39763;51.188;6.690;2023-02-03T05:20:01;102095.81;;;11.56;72.67
53858;BME280;39763;51.188;6.690;2023-02-03T05:21:33;102094.06;;;11.55;72.92
53858;BME280;39763;51.188;6.690;2023-02-03T05:23:06;102088.78;;;11.56;73.25
53858;BME280;39763;51.188;6.690;2023-02-03T05:24:37;102097.56;;;11.55;73.07
53858;BME280;39763;51.188;6.690;2023-02-03T05:26:09;102085.25;;;11.57;72.72
53858;BME280;39763;51.188;6.690;2023-02-03T05:27:40;102082.56;;;11.60;72.58
53858;BME280;39763;51.188;6.690;2023-02-03T05:29:12;102076.41;;;11.60;72.04
53858;BME280;39763;51.188;6.690;2023-02-03T05:30:43;102084.41;;;11.55;72.39
53858;BME280;39763;51.188;6.690;2023-02-03T05:32:15;102083.47;;;11.58;72.74
53858;BME280;39763;51.188;6.690;2023-02-03T05:33:46;102084.34;;;11.58;72.64
53858;BME280;39763;51.188;6.690;2023-02-03T05:35:18;102085.19;;;11.60;72.88
53858;BME280;39763;51.188;6.690;2023-02-03T05:36:49;102080.84;;;11.58;72.16
53858;BME280;39763;51.188;6.690;2023-02-03T05:38:22;102086.06;;;11.59;72.57
53858;BME280;39763;51.188;6.690;2023-02-03T05:39:55;102087.88;;;11.57;72.48
53858;BME280;39763;51.188;6.690;2023-02-03T05:41:46;102085.25;;;11.57;72.02
53858;BME280;39763;51.188;6.690;2023-02-03T05:43:24;102083.47;;;11.58;72.33
53858;BME280;39763;51.188;6.690;2023-02-03T05:44:57;102081.69;;;11.58;72.59
53858;BME280;39763;51.188;6.690;2023-02-03T05:46:28;102094.81;;;11.61;72.42
53858;BME280;39763;51.188;6.690;2023-02-03T05:48:00;102104.44;;;11.64;72.07
53858;BME280;39763;51.188;6.690;2023-02-03T05:49:34;102095.66;;;11.65;72.08
53858;BME280;39763;51.188;6.690;2023-02-03T05:51:05;102110.59;;;11.63;72.49
53858;BME280;39763;51.188;6.690;2023-02-03T05:52:37;102112.50;;;11.53;71.41
53858;BME280;39763;51.188;6.690;2023-02-03T05:54:10;102124.00;;;11.45;72.32
53858;BME280;39763;51.188;6.690;2023-02-03T05:55:41;102118.81;;;11.42;72.48
53858;BME280;39763;51.188;6.690;2023-02-03T05:57:13;102124.91;;;11.44;72.03
53858;BME280;39763;51.188;6.690;2023-02-03T05:58:44;102126.59;;;11.48;72.53
53858;BME280;39763;51.188;6.690;2023-02-03T06:00:16;102114.25;;;11.53;72.24
53858;BME280;39763;51.188;6.690;2023-02-03T06:01:48;102114.19;;;11.57;71.91
53858;BME280;39763;51.188;6.690;2023-02-03T06:03:19;102106.25;;;11.59;71.94
53858;BME280;39763;51.188;6.690;2023-02-03T06:04:51;102103.59;;;11.60;71.54
53858;BME280;39763;51.188;6.690;2023-02-03T06:06:22;102105.38;;;11.58;71.78
53858;BME280;39763;51.188;6.690;2023-02-03T06:07:54;102110.72;;;11.55;71.73
53858;BME280;39763;51.188;6.690;2023-02-03T06:09:27;102108.00;;;11.58;71.89
53858;BME280;39763;51.188;6.690;2023-02-03T06:10:58;102122.88;;;11.62;71.81
53858;BME280;39763;51.188;6.690;2023-02-03T06:12:30;102122.91;;;11.59;71.10
53858;BME280;39763;51.188;6.690;2023-02-03T06:14:02;102127.41;;;11.53;71.22
53858;BME280;39763;51.188;6.690;2023-02-03T06:15:34;102112.47;;;11.55;71.72
53858;BME280;39763;51.188;6.690;2023-02-03T06:17:05;102108.88;;;11.60;71.66
53858;BME280;39763;51.188;6.690;2023-02-03T06:18:37;102113.25;;;11.61;71.38
53858;BME280;39763;51.188;6.690;2023-02-03T06:20:09;102102.63;;;11.68;71.31
53858;BME280;39763;51.188;6.690;2023-02-03T06:21:41;102106.97;;;11.72;70.92
53858;BME280;39763;51.188;6.690;2023-02-03T06:23:12;102106.09;;;11.71;70.51
53858;BME280;39763;51.188;6.690;2023-02-03T06:24:45;102103.53;;;11.66;70.99
53858;BME280;39763;51.188;6.690;2023-02-03T06:26:18;102107.03;;;11.67;71.35
53858;BME280;39763;51.188;6.690;2023-02-03T06:27:49;102115.75;;;11.71;70.27
53858;BME280;39763;51.188;6.690;2023-02-03T06:29:21;102114.91;;;11.67;71.35
53858;BME280;39763;51.188;6.690;2023-02-03T06:30:53;102118.41;;;11.69;70.78
53858;BME280;39763;51.188;6.690;2023-02-03T06:32:24;102121.06;;;11.68;70.91
53858;BME280;39763;51.188;6.690;2023-02-03T06:33:56;102124.44;;;11.74;70.53
53858;BME280;39763;51.188;6.690;2023-02-03T06:35:29;102135.84;;;11.76;70.50
53858;BME280;39763;51.188;6.690;2023-02-03T06:37:01;102127.22;;;11.65;70.30
53858;BME280;39763;51.188;6.690;2023-02-03T06:38:32;102122.88;;;11.62;70.73
53858;BME280;39763;51.188;6.690;2023-02-03T06:40:06;102118.44;;;11.66;70.56
53858;BME280;39763;51.188;6.690;2023-02-03T06:41:37;102108.78;;;11.66;70.06
53858;BME280;39763;51.188;6.690;2023-02-03T06:43:09;102107.84;;;11.71;70.69
53858;BME280;39763;51.188;6.690;2023-02-03T06:44:40;102115.66;;;11.74;70.99
53858;BME280;39763;51.188;6.690;2023-02-03T06:46:12;102106.88;;;11.75;70.28
53858;BME280;39763;51.188;6.690;2023-02-03T06:47:44;102109.50;;;11.79;70.21
53858;BME280;39763;51.188;6.690;2023-02-03T06:49:15;102120.91;;;11.75;70.12
53858;BME280;39763;51.188;6.690;2023-02-03T06:50:50;102122.69;;;11.76;70.30
53858;BME280;39763;51.188;6.690;2023-02-03T06:52:21;102117.38;;;11.79;70.22
53858;BME280;39763;51.188;6.690;2023-02-03T06:53:53;102103.34;;;11.79;70.52
53858;BME280;39763;51.188;6.690;2023-02-03T06:55:26;102106.91;;;11.76;69.78
53858;BME280;39763;51.188;6.690;2023-02-03T06:56:57;102112.31;;;11.65;69.68
53858;BME280;39763;51.188;6.690;2023-02-03T06:58:29;102111.38;;;11.70;69.98
53858;BME280;39763;51.188;6.690;2023-02-03T07:00:00;102103.47;;;11.70;69.73
53858;BME280;39763;51.188;6.690;2023-02-03T07:01:32;102112.13;;;11.78;69.70
53858;BME280;39763;51.188;6.690;2023-02-03T07:03:04;102090.22;;;11.77;70.27
53858;BME280;39763;51.188;6.690;2023-02-03T07:04:35;102099.13;;;11.67;70.11
53858;BME280;39763;51.188;6.690;2023-02-03T07:06:09;102103.53;;;11.65;69.62
53858;BME280;39763;51.188;6.690;2023-02-03T07:07:40;102102.66;;;11.66;70.35
53858;BME280;39763;51.188;6.690;2023-02-03T07:09:12;102104.44;;;11.64;70.15
53858;BME280;39763;51.188;6.690;2023-02-03T07:10:45;102105.22;;;11.71;70.45
53858;BME280;39763;51.188;6.690;2023-02-03T07:12:16;102120.16;;;11.69;70.39
53858;BME280;39763;51.188;6.690;2023-02-03T07:13:48;102108.75;;;11.70;70.14
53858;BME280;39763;51.188;6.690;2023-02-03T07:15:20;102123.66;;;11.71;70.39
53858;BME280;39763;51.188;6.690;2023-02-03T07:16:51;102125.47;;;11.65;70.09
53858;BME280;39763;51.188;6.690;2023-02-03T07:18:24;102121.03;;;11.69;70.06
53858;BME280;39763;51.188;6.690;2023-02-03T07:20:16;102118.47;;;11.63;70.13
53858;BME280;39763;51.188;6.690;2023-02-03T07:21:48;102122.00;;;11.62;69.80
53858;BME280;39763;51.188;6.690;2023-02-03T07:23:19;102124.66;;;11.60;69.83
53858;BME280;39763;51.188;6.690;2023-02-03T07:24:51;102121.25;;;11.55;70.12
53858;BME280;39763;51.188;6.690;2023-02-03T07:26:24;102127.38;;;11.56;70.80
53858;BME280;39763;51.188;6.690;2023-02-03T07:27:56;102120.28;;;11.59;70.92
53858;BME280;39763;51.188;6.690;2023-02-03T07:29:28;102116.72;;;11.63;70.45
53858;BME280;39763;51.188;6.690;2023-02-03T07:31:00;102111.38;;;11.70;70.54
53858;BME280;39763;51.188;6.690;2023-02-03T07:32:31;102116.56;;;11.73;70.35
53858;BME280;39763;51.188;6.690;2023-02-03T07:34:04;102114.00;;;11.70;70.38
53858;BME280;39763;51.188;6.690;2023-02-03T07:35:36;102116.69;;;11.66;70.05
53858;BME280;39763;51.188;6.690;2023-02-03T07:37:08;102100.03;;;11.64;70.67
53858;BME280;39763;51.188;6.690;2023-02-03T07:38:39;102112.47;;;11.56;69.91
53858;BME280;39763;51.188;6.690;2023-02-03T07:40:11;102121.31;;;11.49;70.13
53858;BME280;39763;51.188;6.690;2023-02-03T07:41:45;102113.59;;;11.39;71.00
53858;BME280;39763;51.188;6.690;2023-02-03T07:43:16;102141.69;;;11.35;70.82
53858;BME280;39763;51.188;6.690;2023-02-03T07:44:48;102128.50;;;11.38;71.11
53858;BME280;39763;51.188;6.690;2023-02-03T07:46:20;102118.00;;;11.38;70.42
53858;BME280;39763;51.188;6.690;2023-02-03T07:47:52;102117.13;;;11.38;70.57
53858;BME280;39763;51.188;6.690;2023-02-03T07:49:23;102116.19;;;11.42;70.73
53858;BME280;39763;51.188;6.690;2023-02-03T07:50:55;102130.13;;;11.45;70.85
53858;BME280;39763;51.188;6.690;2023-02-03T07:52:26;102134.50;;;11.48;70.40
53858;BME280;39763;51.188;6.690;2023-02-03T07:53:58;102120.63;;;11.37;71.02
53858;BME280;39763;51.188;6.690;2023-02-03T07:55:29;102123.13;;;11.44;70.92
53858;BME280;39763;51.188;6.690;2023-02-03T07:57:02;102124.00;;;11.45;70.25
53858;BME280;39763;51.188;6.690;2023-02-03T07:58:34;102127.50;;;11.45;70.54
53858;BME280;39763;51.188;6.690;2023-02-03T08:00:06;102123.13;;;11.46;70.71
53858;BME280;39763;51.188;6.690;2023-02-03T08:01:43;102132.75;;;11.47;70.49
53858;BME280;39763;51.188;6.690;2023-02-03T08:03:15;102137.97;;;11.50;70.17
53858;BME280;39763;51.188;6.690;2023-02-03T08:04:46;102117.84;;;11.47;70.66
53858;BME280;39763;51.188;6.690;2023-02-03T08:06:18;102130.88;;;11.56;70.24
53858;BME280;39763;51.188;6.690;2023-02-03T08:07:50;102131.63;;;11.63;70.12
53858;BME280;39763;51.188;6.690;2023-02-03T08:09:21;102135.31;;;11.51;70.01
53858;BME280;39763;51.188;6.690;2023-02-03T08:10:53;102131.03;;;11.44;70.22